createdAt,value
2019-01-18T00:00:25.020Z,2.09
2019-01-18T00:01:25.011Z,2.26
2019-01-18T00:02:24.999Z,2.30
2019-01-18T00:03:24.991Z,2.15
2019-01-18T00:04:25.003Z,2.10
2019-01-18T00:05:24.967Z,2.13
2019-01-18T00:06:24.957Z,2.15
2019-01-18T00:07:24.943Z,2.19
2019-01-18T00:08:24.937Z,2.15
2019-01-18T00:09:24.922Z,2.12
2019-01-18T00:10:24.935Z,2.15
2019-01-18T00:11:24.902Z,2.17
2019-01-18T00:12:24.889Z,2.13
2019-01-18T00:13:24.878Z,2.19
2019-01-18T00:14:24.867Z,2.23
2019-01-18T00:15:24.882Z,2.17
2019-01-18T00:16:24.844Z,2.12
2019-01-18T00:17:24.832Z,2.17
2019-01-18T00:18:24.823Z,2.17
2019-01-18T00:19:24.810Z,2.15
2019-01-18T00:20:24.822Z,2.12
2019-01-18T00:21:24.791Z,2.06
2019-01-18T00:22:24.777Z,2.13
2019-01-18T00:23:24.769Z,2.15
2019-01-18T00:24:24.756Z,2.08
2019-01-18T00:25:24.768Z,2.15
2019-01-18T00:26:24.738Z,2.12
2019-01-18T00:27:24.726Z,2.12
2019-01-18T00:28:24.714Z,2.12
2019-01-18T00:29:29.556Z,2.09
2019-01-18T00:30:26.206Z,2.06
2019-01-18T00:31:24.679Z,2.13
2019-01-18T00:32:24.668Z,2.04
2019-01-18T00:33:24.660Z,2.09
2019-01-18T00:34:24.647Z,2.12
2019-01-18T00:35:24.658Z,2.16
2019-01-18T00:36:24.625Z,2.16
2019-01-18T00:37:24.615Z,2.16
2019-01-18T00:48:49.468Z,2.15
2019-01-18T00:49:22.422Z,2.16
2019-01-18T00:50:22.432Z,2.19
2019-01-18T00:51:22.393Z,2.15
2019-01-18T00:52:22.379Z,2.17
2019-01-18T00:53:22.370Z,2.22
2019-01-18T00:54:22.357Z,2.16
2019-01-18T00:55:22.367Z,2.16
2019-01-18T00:56:22.335Z,2.17
2019-01-18T00:57:22.327Z,2.15
2019-01-18T00:58:22.315Z,2.15
2019-01-18T00:59:22.302Z,2.19
2019-01-18T01:00:22.318Z,2.27
2019-01-18T01:01:22.281Z,2.17
2019-01-18T01:02:22.269Z,2.13
2019-01-18T01:03:22.258Z,2.17
2019-01-18T01:04:22.250Z,2.08
2019-01-18T01:05:22.299Z,2.15
2019-01-18T01:06:22.226Z,2.15
2019-01-18T01:07:22.216Z,2.10
2019-01-18T01:08:22.204Z,2.10
2019-01-18T01:09:22.192Z,2.16
2019-01-18T01:10:22.184Z,2.13
2019-01-18T01:11:22.197Z,2.10
2019-01-18T01:12:22.160Z,2.09
2019-01-18T01:13:22.149Z,2.15
2019-01-18T01:14:22.138Z,2.13
2019-01-18T01:15:22.128Z,2.06
2019-01-18T01:16:22.912Z,2.10
2019-01-18T01:17:22.114Z,2.10
2019-01-18T01:18:22.098Z,1.99
2019-01-18T01:19:22.087Z,2.04
2019-01-18T01:20:22.072Z,2.04
2019-01-18T01:21:22.060Z,2.04
2019-01-18T01:22:22.079Z,1.99
2019-01-18T01:23:22.141Z,1.97
2019-01-18T01:24:22.028Z,1.97
2019-01-18T01:25:22.024Z,2.01
2019-01-18T01:26:22.006Z,2.02
2019-01-18T01:27:22.014Z,1.94
2019-01-18T01:28:21.984Z,2.12
2019-01-18T01:29:21.973Z,2.17
2019-01-18T01:30:21.967Z,2.17
2019-01-18T01:31:21.952Z,2.09
2019-01-18T01:32:21.966Z,2.16
2019-01-18T01:33:21.929Z,2.15
2019-01-18T01:34:21.924Z,2.12
2019-01-18T01:35:21.907Z,2.16
2019-01-18T01:36:21.900Z,2.15
2019-01-18T01:37:21.905Z,2.10
2019-01-18T01:38:21.874Z,2.12
2019-01-18T01:39:21.865Z,2.15
2019-01-18T01:40:21.851Z,2.12
2019-01-18T01:41:21.840Z,2.06
2019-01-18T01:42:21.856Z,2.10
2019-01-18T01:43:21.820Z,2.15
2019-01-18T01:44:21.807Z,2.09
2019-01-18T01:45:21.798Z,2.13
2019-01-18T01:46:21.785Z,2.12
2019-01-18T01:47:21.780Z,2.04
2019-01-18T01:48:21.912Z,2.08
2019-01-18T01:49:21.755Z,2.12
2019-01-18T01:50:21.742Z,2.10
2019-01-18T01:51:21.735Z,2.06
2019-01-18T01:52:21.723Z,2.02
2019-01-18T01:53:21.729Z,2.09
2019-01-18T01:54:21.709Z,1.91
2019-01-18T01:55:21.691Z,2.01
2019-01-18T01:56:21.684Z,2.04
2019-01-18T01:57:21.670Z,2.04
2019-01-18T01:58:21.678Z,2.01
2019-01-18T01:59:21.647Z,1.99
2019-01-18T02:00:21.631Z,1.98
2019-01-18T02:01:21.623Z,2.02
2019-01-18T02:02:21.611Z,2.02
2019-01-18T02:03:21.620Z,1.99
2019-01-18T02:04:21.590Z,1.94
2019-01-18T02:05:21.579Z,1.94
2019-01-18T02:06:21.566Z,1.89
2019-01-18T02:07:21.554Z,1.83
2019-01-18T02:08:21.571Z,1.82
2019-01-18T02:09:21.533Z,1.83
2019-01-18T02:10:21.522Z,1.80
2019-01-18T02:11:21.513Z,1.85
2019-01-18T02:12:21.500Z,1.90
2019-01-18T02:13:21.494Z,1.83
2019-01-18T02:14:21.505Z,1.94
2019-01-18T02:15:21.469Z,1.90
2019-01-18T02:16:21.458Z,1.94
2019-01-18T02:17:21.445Z,1.98
2019-01-18T02:18:21.433Z,2.04
2019-01-18T02:19:21.445Z,1.98
2019-01-18T02:20:21.416Z,1.97
2019-01-18T02:21:21.402Z,2.01
2019-01-18T02:22:21.391Z,1.99
2019-01-18T02:23:21.379Z,1.98
2019-01-18T02:24:21.402Z,1.90
2019-01-18T02:25:21.356Z,1.94
2019-01-18T02:26:21.346Z,1.89
2019-01-18T02:27:21.338Z,1.87
2019-01-18T02:28:21.324Z,1.91
2019-01-18T02:29:21.313Z,1.91
2019-01-18T02:30:21.323Z,1.94
2019-01-18T02:31:21.292Z,1.93
2019-01-18T02:32:21.281Z,1.93
2019-01-18T02:33:21.271Z,1.98
2019-01-18T02:34:21.259Z,1.99
2019-01-18T02:35:21.270Z,1.99
2019-01-18T02:36:21.236Z,2.04
2019-01-18T02:37:21.227Z,1.91
2019-01-18T02:38:21.213Z,2.01
2019-01-18T02:39:21.204Z,2.01
2019-01-18T02:40:21.236Z,1.99
2019-01-18T02:41:21.183Z,1.99
2019-01-18T02:42:21.170Z,2.06
2019-01-18T02:43:21.161Z,2.01
2019-01-18T02:44:21.149Z,1.99
2019-01-18T02:45:21.138Z,1.94
2019-01-18T02:46:21.147Z,1.99
2019-01-18T02:47:21.116Z,1.98
2019-01-18T02:48:21.105Z,2.09
2019-01-18T02:49:21.095Z,1.97
2019-01-18T02:50:21.083Z,2.01
2019-01-18T02:51:21.092Z,2.04
2019-01-18T02:52:21.060Z,1.99
2019-01-18T02:53:21.049Z,2.08
2019-01-18T02:54:21.040Z,2.01
2019-01-18T02:55:28.559Z,2.02
2019-01-18T02:56:22.041Z,1.98
2019-01-18T02:57:21.048Z,1.98
2019-01-18T02:58:20.993Z,2.02
2019-01-18T02:59:20.986Z,1.94
2019-01-18T03:00:20.998Z,1.97
2019-01-18T03:01:20.985Z,1.98
2019-01-18T03:02:20.950Z,2.01
2019-01-18T03:03:20.945Z,2.04
2019-01-18T03:04:20.928Z,2.01
2019-01-18T03:05:20.921Z,2.04
2019-01-18T03:06:21.928Z,2.01
2019-01-18T03:07:20.896Z,2.10
2019-01-18T03:08:20.885Z,1.99
2019-01-18T03:09:20.880Z,1.97
2019-01-18T03:10:20.862Z,2.01
2019-01-18T03:11:20.850Z,1.98
2019-01-18T03:12:20.860Z,2.02
2019-01-18T03:13:20.827Z,2.02
2019-01-18T03:14:20.819Z,2.04
2019-01-18T03:15:20.807Z,2.06
2019-01-18T03:16:20.799Z,1.99
2019-01-18T03:17:20.805Z,1.98
2019-01-18T03:18:20.778Z,2.06
2019-01-18T03:19:20.765Z,2.04
2019-01-18T03:20:20.752Z,2.06
2019-01-18T03:21:20.741Z,2.09
2019-01-18T03:22:20.755Z,1.97
2019-01-18T03:23:20.719Z,2.12
2019-01-18T03:24:20.708Z,2.02
2019-01-18T03:25:20.696Z,2.08
2019-01-18T03:26:20.691Z,2.01
2019-01-18T03:27:20.682Z,2.08
2019-01-18T03:28:20.685Z,2.02
2019-01-18T03:29:20.655Z,2.06
2019-01-18T03:30:21.341Z,1.98
2019-01-18T03:31:20.633Z,2.12
2019-01-18T03:32:20.628Z,2.10
2019-01-18T03:33:20.639Z,2.04
2019-01-18T03:34:20.600Z,2.12
2019-01-18T03:35:20.590Z,2.01
2019-01-18T03:36:20.580Z,2.01
2019-01-18T03:37:20.567Z,2.04
2019-01-18T03:38:20.925Z,2.13
2019-01-18T03:39:20.542Z,2.04
2019-01-18T03:40:20.532Z,2.06
2019-01-18T03:41:20.521Z,2.06
2019-01-18T03:42:20.510Z,2.08
2019-01-18T03:43:20.521Z,2.02
2019-01-18T03:44:20.492Z,2.04
2019-01-18T03:45:20.478Z,2.08
2019-01-18T03:46:20.470Z,2.15
2019-01-18T03:47:20.455Z,2.04
2019-01-18T03:48:20.467Z,2.02
2019-01-18T03:49:20.433Z,2.04
2019-01-18T03:50:20.427Z,2.04
2019-01-18T03:51:20.421Z,2.12
2019-01-18T03:52:20.401Z,1.99
2019-01-18T03:53:20.410Z,1.99
2019-01-18T03:54:20.383Z,1.99
2019-01-18T03:55:20.370Z,2.09
2019-01-18T03:56:20.357Z,2.06
2019-01-18T03:57:20.348Z,2.02
2019-01-18T03:58:20.353Z,2.02
2019-01-18T03:59:20.323Z,2.02
2019-01-18T04:00:25.756Z,2.04
2019-01-18T04:01:21.302Z,1.99
2019-01-18T04:02:20.289Z,2.02
2019-01-18T04:03:20.321Z,2.01
2019-01-18T04:04:20.267Z,1.97
2019-01-18T04:05:20.258Z,2.02
2019-01-18T04:06:20.247Z,2.01
2019-01-18T04:07:20.238Z,1.98
2019-01-18T04:08:20.223Z,1.98
2019-01-18T04:09:20.235Z,1.91
2019-01-18T04:10:20.205Z,2.02
2019-01-18T04:11:20.189Z,1.97
2019-01-18T04:12:20.180Z,1.99
2019-01-18T04:13:20.171Z,1.89
2019-01-18T04:14:20.184Z,2.06
2019-01-18T04:15:20.148Z,1.94
2019-01-18T04:16:20.148Z,1.97
2019-01-18T04:17:20.124Z,1.98
2019-01-18T04:18:20.938Z,2.01
2019-01-18T04:19:20.106Z,2.06
2019-01-18T04:20:20.094Z,2.02
2019-01-18T04:21:20.080Z,1.93
2019-01-18T04:22:20.069Z,2.06
2019-01-18T04:23:20.145Z,2.01
2019-01-18T04:24:20.069Z,1.90
2019-01-18T04:25:20.038Z,1.89
2019-01-18T04:26:20.025Z,1.94
2019-01-18T04:27:20.018Z,2.01
2019-01-18T04:28:20.005Z,1.90
2019-01-18T04:29:20.015Z,1.87
2019-01-18T04:30:19.982Z,1.90
2019-01-18T04:31:19.973Z,1.93
2019-01-18T04:32:19.962Z,1.91
2019-01-18T04:33:19.950Z,1.82
2019-01-18T04:34:19.965Z,1.90
2019-01-18T04:35:19.933Z,1.79
2019-01-18T04:36:19.917Z,1.85
2019-01-18T04:37:19.906Z,1.79
2019-01-18T04:38:19.895Z,1.78
2019-01-18T04:39:19.885Z,1.79
2019-01-18T04:40:19.896Z,1.82
2019-01-18T04:41:19.866Z,1.82
2019-01-18T05:17:45.081Z,1.78
2019-01-18T05:18:45.091Z,1.73
2019-01-18T05:19:45.046Z,1.71
2019-01-18T05:20:45.031Z,1.73
2019-01-18T05:21:45.044Z,1.69
2019-01-18T05:22:45.008Z,1.73
2019-01-18T05:23:44.995Z,1.75
2019-01-18T05:24:49.395Z,1.73
2019-01-18T05:25:44.972Z,1.69
2019-01-18T05:26:44.965Z,1.69
2019-01-18T05:27:44.974Z,1.75
2019-01-18T05:28:44.944Z,1.75
2019-01-18T05:29:44.931Z,1.73
2019-01-18T05:30:47.688Z,1.73
2019-01-18T05:31:44.910Z,1.72
2019-01-18T05:32:44.926Z,1.79
2019-01-18T05:33:44.892Z,1.72
2019-01-18T05:34:44.875Z,1.73
2019-01-18T05:35:44.863Z,1.78
2019-01-18T05:36:44.855Z,1.76
2019-01-18T05:37:44.841Z,1.75
2019-01-18T05:38:44.852Z,1.68
2019-01-18T05:39:44.821Z,1.69
2019-01-18T05:40:44.814Z,1.76
2019-01-18T05:41:44.801Z,1.76
2019-01-18T05:42:44.787Z,1.72
2019-01-18T05:43:44.801Z,1.68
2019-01-18T05:44:44.768Z,1.68
2019-01-18T05:45:44.760Z,1.73
2019-01-18T05:46:44.745Z,1.75
2019-01-18T05:47:44.737Z,1.75
2019-01-18T05:48:44.747Z,1.76
2019-01-18T05:49:44.714Z,1.72
2019-01-18T05:50:44.705Z,1.79
2019-01-18T05:51:44.698Z,1.73
2019-01-18T05:52:44.685Z,1.73
2019-01-18T05:53:44.698Z,1.73
2019-01-18T05:54:44.663Z,1.73
2019-01-18T05:55:44.650Z,1.72
2019-01-18T05:56:44.646Z,1.72
2019-01-18T05:57:44.633Z,1.73
2019-01-18T05:58:44.623Z,1.73
2019-01-18T05:59:44.630Z,1.72
2019-01-18T06:00:44.596Z,1.73
2019-01-18T06:01:44.585Z,1.71
2019-01-18T06:02:44.571Z,1.69
2019-01-18T06:03:44.563Z,1.78
2019-01-18T06:04:44.577Z,1.71
2019-01-18T06:05:44.539Z,1.65
2019-01-18T06:06:44.529Z,1.72
2019-01-18T06:07:44.520Z,1.76
2019-01-18T06:08:44.506Z,1.72
2019-01-18T06:09:44.495Z,1.69
2019-01-18T06:10:44.507Z,1.72
2019-01-18T06:11:44.475Z,1.69
2019-01-18T06:12:44.463Z,1.69
2019-01-18T06:13:44.451Z,1.65
2019-01-18T06:14:44.441Z,1.65
2019-01-18T06:15:44.452Z,1.65
2019-01-18T06:16:44.421Z,1.62
2019-01-18T06:17:44.411Z,1.61
2019-01-18T06:18:44.397Z,1.60
2019-01-18T06:19:44.388Z,1.64
2019-01-18T06:20:45.113Z,1.51
2019-01-18T06:21:44.367Z,1.50
2019-01-18T06:22:44.355Z,1.52
2019-01-18T06:23:44.346Z,1.52
2019-01-18T06:24:44.341Z,1.52
2019-01-18T06:25:44.367Z,1.47
2019-01-18T06:26:44.314Z,1.52
2019-01-18T06:27:44.301Z,1.54
2019-01-18T06:28:44.289Z,1.50
2019-01-18T06:29:44.278Z,1.37
2019-01-18T06:30:44.270Z,1.43
2019-01-18T06:31:44.279Z,1.39
2019-01-18T06:32:44.245Z,1.44
2019-01-18T06:33:44.278Z,1.40
2019-01-18T06:34:44.223Z,1.40
2019-01-18T06:35:44.215Z,1.40
2019-01-18T06:36:44.230Z,1.36
2019-01-18T06:37:44.192Z,1.37
2019-01-18T06:38:44.182Z,1.42
2019-01-18T06:39:44.169Z,1.40
2019-01-18T06:40:44.158Z,1.40
2019-01-18T06:41:44.167Z,1.34
2019-01-18T06:42:44.137Z,1.34
2019-01-18T06:43:44.126Z,1.32
2019-01-18T06:44:44.115Z,1.40
2019-01-18T06:45:44.105Z,1.37
2019-01-18T06:46:44.115Z,1.36
2019-01-18T06:47:44.085Z,1.37
2019-01-18T06:48:44.074Z,1.29
2019-01-18T06:49:44.061Z,1.33
2019-01-18T06:50:44.067Z,1.28
2019-01-18T06:51:44.065Z,1.33
2019-01-18T06:52:44.031Z,1.33
2019-01-18T06:53:44.018Z,1.37
2019-01-18T06:54:44.008Z,1.36
2019-01-18T06:55:43.998Z,1.36
2019-01-18T06:56:44.009Z,1.32
2019-01-18T06:57:43.978Z,1.33
2019-01-18T06:58:43.964Z,1.32
2019-01-18T06:59:43.966Z,1.28
2019-01-18T07:00:43.942Z,1.33
2019-01-18T07:01:43.955Z,1.33
2019-01-18T07:02:43.920Z,1.33
2019-01-18T07:03:43.914Z,1.37
2019-01-18T07:04:43.903Z,1.37
2019-01-18T07:05:43.888Z,1.32
2019-01-18T07:06:43.898Z,1.34
2019-01-18T07:07:43.867Z,1.39
2019-01-18T07:08:43.854Z,1.28
2019-01-18T07:09:43.845Z,1.37
2019-01-18T07:10:43.843Z,1.33
2019-01-18T07:11:43.847Z,1.34
2019-01-18T07:12:43.818Z,1.33
2019-01-18T07:13:43.810Z,1.37
2019-01-18T07:14:43.802Z,1.37
2019-01-18T07:15:43.796Z,1.33
2019-01-18T07:16:43.798Z,1.33
2019-01-18T07:17:43.763Z,1.32
2019-01-18T07:18:43.756Z,1.33
2019-01-18T07:19:43.743Z,1.34
2019-01-18T07:20:43.726Z,1.33
2019-01-18T07:21:43.756Z,1.26
2019-01-18T07:22:43.713Z,1.32
2019-01-18T07:23:43.702Z,1.28
2019-01-18T07:24:43.694Z,1.32
2019-01-18T07:25:43.682Z,1.25
2019-01-18T07:26:43.698Z,1.33
2019-01-18T07:27:43.658Z,1.25
2019-01-18T07:28:43.649Z,1.29
2019-01-18T07:29:43.646Z,1.29
2019-01-18T07:30:43.629Z,1.33
2019-01-18T07:31:43.620Z,1.22
2019-01-18T07:32:43.644Z,1.26
2019-01-18T07:33:43.604Z,1.28
2019-01-18T07:34:43.589Z,1.26
2019-01-18T07:35:43.573Z,1.29
2019-01-18T07:36:43.573Z,1.28
2019-01-18T07:37:44.139Z,1.33
2019-01-18T07:38:43.539Z,1.26
2019-01-18T07:39:43.528Z,1.29
2019-01-18T07:40:43.528Z,1.26
2019-01-18T07:41:43.513Z,1.25
2019-01-18T07:42:43.505Z,1.26
2019-01-18T07:43:43.507Z,1.26
2019-01-18T07:44:43.474Z,1.21
2019-01-18T07:45:43.465Z,1.28
2019-01-18T07:46:43.450Z,1.24
2019-01-18T07:47:43.437Z,1.26
2019-01-18T07:48:43.453Z,1.22
2019-01-18T07:49:43.418Z,1.29
2019-01-18T07:50:43.404Z,1.32
2019-01-18T07:51:43.391Z,1.25
2019-01-18T07:52:49.656Z,1.32
2019-01-18T07:53:49.689Z,1.36
2019-01-18T07:54:49.639Z,1.34
2019-01-18T07:55:49.629Z,1.32
2019-01-18T07:56:49.662Z,1.37
2019-01-18T07:57:49.613Z,1.22
2019-01-18T07:58:49.596Z,1.25
2019-01-18T07:59:49.651Z,1.24
2019-01-18T08:00:49.571Z,1.32
2019-01-18T08:01:49.564Z,1.29
2019-01-18T08:02:49.550Z,1.21
2019-01-18T08:03:49.541Z,1.25
2019-01-18T08:04:49.566Z,1.24
2019-01-18T08:05:49.524Z,1.15
2019-01-18T08:06:49.508Z,1.19
2019-01-18T08:07:49.496Z,1.25
2019-01-18T08:08:49.488Z,1.18
2019-01-18T08:09:49.475Z,1.19
2019-01-18T08:10:49.486Z,1.25
2019-01-18T08:11:49.451Z,1.19
2019-01-18T08:12:49.443Z,1.21
2019-01-18T08:13:49.432Z,1.29
2019-01-18T08:14:49.422Z,1.25
2019-01-18T08:15:49.428Z,1.24
2019-01-18T08:16:49.433Z,1.29
2019-01-18T08:17:49.386Z,1.37
2019-01-18T08:18:49.376Z,1.29
2019-01-18T08:19:49.366Z,1.29
2019-01-18T08:20:49.375Z,1.25
2019-01-18T08:21:49.343Z,1.29
2019-01-18T08:22:49.333Z,1.22
2019-01-18T08:23:49.321Z,1.26
2019-01-18T08:24:49.310Z,1.24
2019-01-18T08:25:49.322Z,1.34
2019-01-18T08:26:49.289Z,1.26
2019-01-18T08:27:49.279Z,1.26
2019-01-18T08:28:49.266Z,1.28
2019-01-18T08:29:49.261Z,1.25
2019-01-18T08:30:49.269Z,1.26
2019-01-18T08:31:49.235Z,1.24
2019-01-18T08:32:49.222Z,1.24
2019-01-18T08:33:49.212Z,1.25
2019-01-18T08:34:49.202Z,1.33
2019-01-18T08:35:49.192Z,1.29
2019-01-18T08:36:49.203Z,1.39
2019-01-18T08:37:49.175Z,1.37
2019-01-18T08:38:49.158Z,1.34
2019-01-18T08:39:49.148Z,1.36
2019-01-18T08:40:49.139Z,1.36
2019-01-18T08:41:49.154Z,1.36
2019-01-18T08:42:49.119Z,1.29
2019-01-18T08:43:49.115Z,1.36
2019-01-18T08:44:49.102Z,1.32
2019-01-18T08:45:50.541Z,1.28
2019-01-18T08:46:49.119Z,1.34
2019-01-18T08:47:49.066Z,1.29
2019-01-18T08:48:49.059Z,1.32
2019-01-18T08:49:49.049Z,1.33
2019-01-18T08:50:49.036Z,1.34
2019-01-18T08:51:49.024Z,1.36
2019-01-18T08:52:49.036Z,1.34
2019-01-18T08:53:48.998Z,1.33
2019-01-18T08:54:48.987Z,1.26
2019-01-18T08:55:48.980Z,1.37
2019-01-18T08:56:48.969Z,1.28
2019-01-18T08:57:49.004Z,1.25
2019-01-18T08:58:48.943Z,1.21
2019-01-18T08:59:48.937Z,1.25
2019-01-18T09:00:48.970Z,1.47
2019-01-18T09:01:48.922Z,1.22
2019-01-18T09:02:48.908Z,1.37
2019-01-18T09:03:48.916Z,1.37
2019-01-18T09:04:48.883Z,1.43
2019-01-18T09:05:48.877Z,1.39
2019-01-18T09:06:48.860Z,1.43
2019-01-18T09:07:48.853Z,1.43
2019-01-18T09:08:48.873Z,1.40
2019-01-18T09:09:48.831Z,1.46
2019-01-18T09:10:48.822Z,1.43
2019-01-18T09:11:48.807Z,1.36
2019-01-18T09:12:48.805Z,1.43
2019-01-18T09:13:48.810Z,1.40
2019-01-18T09:14:48.777Z,1.52
2019-01-18T09:15:48.762Z,1.50
2019-01-18T09:16:48.750Z,1.52
2019-01-18T09:17:48.741Z,1.52
2019-01-18T09:18:49.304Z,1.51
2019-01-18T09:19:48.718Z,1.47
2019-01-18T09:20:48.709Z,1.61
2019-01-18T09:21:48.699Z,1.72
2019-01-18T09:22:48.687Z,1.69
2019-01-18T09:23:48.678Z,1.78
2019-01-18T09:24:48.692Z,1.69
2019-01-18T09:25:48.653Z,1.78
2019-01-18T09:26:48.647Z,1.76
2019-01-18T09:27:48.632Z,1.78
2019-01-18T09:28:48.621Z,1.82
2019-01-18T09:29:48.639Z,1.91
2019-01-18T09:30:48.604Z,1.93
2019-01-18T09:31:48.592Z,1.87
2019-01-18T09:32:48.580Z,1.83
2019-01-18T09:33:48.567Z,1.87
2019-01-18T09:34:48.561Z,2.01
2019-01-18T09:35:48.567Z,2.02
2019-01-18T09:36:48.539Z,2.02
2019-01-18T09:37:48.527Z,2.04
2019-01-18T09:38:48.514Z,2.08
2019-01-18T09:39:48.507Z,2.02
2019-01-18T09:40:48.517Z,2.04
2019-01-18T09:41:48.479Z,2.08
2019-01-18T09:42:48.481Z,2.16
2019-01-18T09:43:48.460Z,2.08
2019-01-18T09:44:48.450Z,2.16
2019-01-18T09:45:48.463Z,2.15
2019-01-18T09:46:48.427Z,2.16
2019-01-18T09:47:48.417Z,2.22
2019-01-18T09:48:48.448Z,2.28
2019-01-18T09:49:48.399Z,2.27
2019-01-18T09:50:48.412Z,2.38
2019-01-18T09:51:48.376Z,2.35
2019-01-18T09:52:48.364Z,2.34
2019-01-18T09:53:48.348Z,2.37
2019-01-18T09:54:48.342Z,2.48
2019-01-18T09:55:48.359Z,2.44
2019-01-18T09:56:48.318Z,2.45
2019-01-18T09:57:48.306Z,2.45
2019-01-18T09:58:48.298Z,2.53
2019-01-18T09:59:48.338Z,2.56
2019-01-18T10:00:48.344Z,2.56
2019-01-18T10:01:49.528Z,2.61
2019-01-18T10:02:48.267Z,2.55
2019-01-18T10:03:48.242Z,2.56
2019-01-18T10:04:48.230Z,2.61
2019-01-18T10:05:48.222Z,2.70
2019-01-18T10:06:48.237Z,2.73
2019-01-18T10:07:48.198Z,2.63
2019-01-18T10:08:48.189Z,2.66
2019-01-18T10:09:48.179Z,2.73
2019-01-18T10:10:48.167Z,2.76
2019-01-18T10:11:48.153Z,2.71
2019-01-18T10:12:48.167Z,2.74
2019-01-18T10:13:48.129Z,2.69
2019-01-18T10:14:48.120Z,2.71
2019-01-18T10:15:48.114Z,2.73
2019-01-18T10:16:48.103Z,2.73
2019-01-18T10:17:48.113Z,2.74
2019-01-18T10:18:48.880Z,2.81
2019-01-18T10:19:48.067Z,2.79
2019-01-18T10:20:48.058Z,2.84
2019-01-18T10:21:48.050Z,2.79
2019-01-18T10:22:48.063Z,2.84
2019-01-18T10:23:48.025Z,2.87
2019-01-18T10:24:48.013Z,2.98
2019-01-18T10:25:48.004Z,2.91
2019-01-18T10:26:47.993Z,2.94
2019-01-18T10:27:47.982Z,2.88
2019-01-18T10:28:47.994Z,2.94
2019-01-18T10:29:47.961Z,2.94
2019-01-18T10:30:47.962Z,2.87
2019-01-18T10:31:47.951Z,2.91
2019-01-18T10:32:47.930Z,2.95
2019-01-18T10:33:47.952Z,2.97
2019-01-18T10:34:47.913Z,2.97
2019-01-18T10:35:47.894Z,2.89
2019-01-18T10:36:47.938Z,2.88
2019-01-18T10:37:47.877Z,2.88
2019-01-18T10:38:48.982Z,2.82
2019-01-18T10:39:47.875Z,2.85
2019-01-18T10:40:47.840Z,2.85
2019-01-18T10:41:47.831Z,2.84
2019-01-18T10:42:47.824Z,2.74
2019-01-18T10:43:47.810Z,2.81
2019-01-18T10:44:47.822Z,2.76
2019-01-18T10:45:47.787Z,2.73
2019-01-18T10:46:47.800Z,2.70
2019-01-18T10:47:47.772Z,2.67
2019-01-18T10:48:47.781Z,2.73
2019-01-18T10:49:47.795Z,2.69
2019-01-18T10:50:47.737Z,2.74
2019-01-18T10:51:47.729Z,2.71
2019-01-18T10:52:47.736Z,2.67
2019-01-18T10:53:47.739Z,2.70
2019-01-18T10:54:47.719Z,2.58
2019-01-18T10:55:47.678Z,2.58
2019-01-18T10:56:47.673Z,2.63
2019-01-18T10:57:47.665Z,2.58
2019-01-18T10:58:47.737Z,2.59
2019-01-18T11:25:01.883Z,3.44
2019-01-18T11:25:34.854Z,3.42
2019-01-18T11:26:34.837Z,3.36
2019-01-18T11:27:34.849Z,3.33
2019-01-18T11:28:34.817Z,3.31
2019-01-18T11:29:34.816Z,3.28
2019-01-18T11:30:34.804Z,3.36
2019-01-18T11:31:34.786Z,3.33
2019-01-18T11:32:34.797Z,3.39
2019-01-18T11:33:34.786Z,3.33
2019-01-18T11:34:34.791Z,3.28
2019-01-18T11:35:34.745Z,3.31
2019-01-18T11:36:34.738Z,3.33
2019-01-18T11:37:34.754Z,3.28
2019-01-18T11:38:34.724Z,3.27
2019-01-18T11:39:34.703Z,3.25
2019-01-18T11:40:34.691Z,3.16
2019-01-18T11:41:34.681Z,3.21
2019-01-18T11:42:34.684Z,3.13
2019-01-18T11:43:34.695Z,3.13
2019-01-18T11:44:34.677Z,3.31
2019-01-18T11:45:34.641Z,3.12
2019-01-18T11:46:34.646Z,3.23
2019-01-18T11:47:34.641Z,3.24
2019-01-18T11:48:34.708Z,3.33
2019-01-18T11:49:34.594Z,3.23
2019-01-18T11:50:34.587Z,3.16
2019-01-18T11:51:34.581Z,3.24
2019-01-18T11:52:34.634Z,3.27
2019-01-18T11:53:34.558Z,3.18
2019-01-18T11:54:34.551Z,3.06
2019-01-18T11:55:34.531Z,3.20
2019-01-18T11:56:34.546Z,3.06
2019-01-18T11:57:34.584Z,3.20
2019-01-18T11:58:34.497Z,3.06
2019-01-18T11:59:34.497Z,3.15
2019-01-18T12:00:37.838Z,3.13
2019-01-18T12:01:34.468Z,3.16
2019-01-18T12:02:34.479Z,3.25
2019-01-18T12:03:34.452Z,3.24
2019-01-18T12:04:34.467Z,3.25
2019-01-18T12:05:34.423Z,3.28
2019-01-18T12:06:34.473Z,3.23
2019-01-18T12:07:34.404Z,3.27
2019-01-18T12:08:34.449Z,3.30
2019-01-18T12:09:34.377Z,3.27
2019-01-18T12:10:34.364Z,3.27
2019-01-18T12:11:34.349Z,3.27
2019-01-18T12:12:34.349Z,3.21
2019-01-18T12:13:34.368Z,3.16
2019-01-18T12:14:34.337Z,3.25
2019-01-18T12:15:34.311Z,3.33
2019-01-18T12:16:34.303Z,3.27
2019-01-18T12:17:34.290Z,3.30
2019-01-18T12:18:34.277Z,3.33
2019-01-18T12:19:34.293Z,3.25
2019-01-18T12:20:34.260Z,3.27
2019-01-18T12:21:37.237Z,3.30
2019-01-18T12:22:34.234Z,3.30
2019-01-18T12:23:34.222Z,3.24
2019-01-18T12:24:34.233Z,3.27
2019-01-18T12:25:34.200Z,3.13
2019-01-18T12:26:34.188Z,3.27
2019-01-18T12:27:34.178Z,3.21
2019-01-18T12:28:34.272Z,3.25
2019-01-18T12:29:34.205Z,3.34
2019-01-18T12:30:34.150Z,3.34
2019-01-18T12:31:34.140Z,3.21
2019-01-18T12:32:34.174Z,3.25
2019-01-18T12:33:34.116Z,3.36
2019-01-18T12:34:34.102Z,3.31
2019-01-18T12:35:34.119Z,3.24
2019-01-18T12:36:34.081Z,3.30
2019-01-18T12:42:45.727Z,3.34
2019-01-18T12:43:18.706Z,3.31
2019-01-18T13:12:14.246Z,3.25
2019-01-18T13:12:47.162Z,3.27
2019-01-18T13:13:47.150Z,3.16
2019-01-18T13:14:47.133Z,3.15
2019-01-18T13:15:47.118Z,3.07
2019-01-18T13:16:47.109Z,3.06
2019-01-18T13:17:47.121Z,3.20
2019-01-18T13:18:47.087Z,3.02
2019-01-18T13:19:47.078Z,3.06
2019-01-18T13:20:47.065Z,3.10
2019-01-18T13:21:47.054Z,3.07
2019-01-18T13:22:47.073Z,2.98
2019-01-18T13:23:47.036Z,3.09
2019-01-18T13:24:47.030Z,3.10
2019-01-18T14:28:48.883Z,3.12
2019-01-18T14:29:21.873Z,3.06
2019-01-18T14:30:21.899Z,3.09
2019-01-18T14:31:21.819Z,3.18
2019-01-18T14:32:21.865Z,3.10
2019-01-18T14:33:21.833Z,3.16
2019-01-18T14:34:21.795Z,3.13
2019-01-18T14:35:21.799Z,3.10
2019-01-18T14:37:48.768Z,3.18
2019-01-18T14:37:55.087Z,3.16
2019-01-18T15:37:22.172Z,2.79
2019-01-18T15:38:16.104Z,2.85
2019-01-18T15:39:16.061Z,2.79
2019-01-18T15:40:16.038Z,2.70
2019-01-18T15:41:16.046Z,2.73
2019-01-18T15:42:16.015Z,2.76
2019-01-18T15:43:16.008Z,2.61
2019-01-18T15:44:15.998Z,2.66
2019-01-18T15:45:15.985Z,2.71
2019-01-18T15:46:16.014Z,2.70
2019-01-18T15:47:15.969Z,2.69
2019-01-18T15:48:15.954Z,2.67
2019-01-18T15:49:15.943Z,2.59
2019-01-18T15:50:15.934Z,2.63
2019-01-18T15:51:15.923Z,2.58
2019-01-18T15:52:15.933Z,2.55
2019-01-18T15:53:15.899Z,2.56
2019-01-18T15:54:15.891Z,2.55
2019-01-18T15:55:15.873Z,2.53
2019-01-18T15:56:15.863Z,2.53
2019-01-18T15:57:15.883Z,2.51
2019-01-18T15:58:15.844Z,2.48
2019-01-18T15:59:15.830Z,2.40
2019-01-18T16:00:15.822Z,2.48
2019-01-18T23:26:47.693Z,-0.66
2019-01-18T23:27:20.653Z,-0.70
2019-01-18T23:28:20.664Z,-0.72
2019-01-18T23:29:20.627Z,-0.75
2019-01-18T23:30:20.616Z,-0.75
2019-01-18T23:31:20.606Z,-0.72
2019-01-18T23:32:20.594Z,-0.72
2019-01-18T23:33:20.612Z,-0.69
2019-01-18T23:34:20.582Z,-0.69
2019-01-18T23:35:20.577Z,-0.77
2019-01-18T23:36:20.559Z,-0.75
2019-01-18T23:37:20.561Z,-0.77
2019-01-18T23:38:20.568Z,-0.78
2019-01-18T23:39:20.529Z,-0.70
2019-01-18T23:40:20.516Z,-0.73
2019-01-18T23:41:20.502Z,-0.70
2019-01-18T23:42:20.493Z,-0.73
2019-01-18T23:43:20.525Z,-0.70
2019-01-18T23:44:20.478Z,-0.75
2019-01-18T23:45:20.462Z,-0.75
2019-01-18T23:46:20.456Z,-0.77
2019-01-18T23:47:20.439Z,-0.89
2019-01-18T23:48:20.430Z,-0.78
2019-01-18T23:49:20.960Z,-0.86
2019-01-18T23:50:20.408Z,-0.78
2019-01-18T23:51:20.421Z,-0.84
2019-01-18T23:52:20.384Z,-0.83
2019-01-18T23:53:20.377Z,-0.87
2019-01-18T23:54:20.397Z,-0.78
2019-01-18T23:55:20.347Z,-0.84
2019-01-18T23:56:20.352Z,-0.81
2019-01-18T23:57:20.373Z,-0.80
2019-01-18T23:58:20.371Z,-0.73
2019-01-18T23:59:20.334Z,-0.86
